sensor_id;sensor_type;location;lat;lon;timestamp;P1;durP1;ratioP1;P2;durP2;ratioP2
7557;SDS011;3820;51.098;13.716;2022-11-02T00:00:46;10.90;;;3.97;;
7557;SDS011;3820;51.098;13.716;2022-11-02T00:03:13;11.40;;;3.57;;
7557;SDS011;3820;51.098;13.716;2022-11-02T00:05:40;12.93;;;4.47;;
7557;SDS011;3820;51.098;13.716;2022-11-02T00:08:06;12.23;;;4.20;;
7557;SDS011;3820;51.098;13.716;2022-11-02T00:10:33;11.30;;;3.90;;
7557;SDS011;3820;51.098;13.716;2022-11-02T00:12:59;9.93;;;4.40;;
7557;SDS011;3820;51.098;13.716;2022-11-02T00:15:27;9.83;;;4.70;;
7557;SDS011;3820;51.098;13.716;2022-11-02T00:17:57;13.27;;;4.90;;
7557;SDS011;3820;51.098;13.716;2022-11-02T00:20:26;10.23;;;4.13;;
7557;SDS011;3820;51.098;13.716;2022-11-02T00:22:54;12.67;;;5.43;;
7557;SDS011;3820;51.098;13.716;2022-11-02T00:25:23;7.93;;;3.70;;
7557;SDS011;3820;51.098;13.716;2022-11-02T00:27:51;13.43;;;4.90;;
7557;SDS011;3820;51.098;13.716;2022-11-02T00:30:20;11.67;;;4.73;;
7557;SDS011;3820;51.098;13.716;2022-11-02T00:36:34;10.93;;;4.77;;
7557;SDS011;3820;51.098;13.716;2022-11-02T00:39:01;9.80;;;5.53;;
7557;SDS011;3820;51.098;13.716;2022-11-02T00:41:28;9.13;;;4.40;;
7557;SDS011;3820;51.098;13.716;2022-11-02T00:43:56;11.30;;;4.50;;
7557;SDS011;3820;51.098;13.716;2022-11-02T00:46:23;11.90;;;4.30;;
7557;SDS011;3820;51.098;13.716;2022-11-02T00:48:50;13.70;;;4.50;;
7557;SDS011;3820;51.098;13.716;2022-11-02T00:51:16;12.00;;;4.60;;
7557;SDS011;3820;51.098;13.716;2022-11-02T00:53:43;9.13;;;3.97;;
7557;SDS011;3820;51.098;13.716;2022-11-02T00:56:09;12.43;;;5.97;;
7557;SDS011;3820;51.098;13.716;2022-11-02T00:58:36;13.40;;;4.67;;
7557;SDS011;3820;51.098;13.716;2022-11-02T01:01:03;13.73;;;5.03;;
7557;SDS011;3820;51.098;13.716;2022-11-02T01:03:33;12.53;;;4.63;;
7557;SDS011;3820;51.098;13.716;2022-11-02T01:06:05;21.30;;;5.37;;
7557;SDS011;3820;51.098;13.716;2022-11-02T01:08:33;15.57;;;6.10;;
7557;SDS011;3820;51.098;13.716;2022-11-02T01:11:13;10.80;;;4.73;;
7557;SDS011;3820;51.098;13.716;2022-11-02T01:13:41;12.43;;;5.07;;
7557;SDS011;3820;51.098;13.716;2022-11-02T01:16:08;12.27;;;4.97;;
7557;SDS011;3820;51.098;13.716;2022-11-02T01:18:35;10.67;;;4.80;;
7557;SDS011;3820;51.098;13.716;2022-11-02T01:21:02;11.10;;;5.07;;
7557;SDS011;3820;51.098;13.716;2022-11-02T01:23:33;12.47;;;5.53;;
7557;SDS011;3820;51.098;13.716;2022-11-02T01:26:04;9.73;;;4.70;;
7557;SDS011;3820;51.098;13.716;2022-11-02T01:28:34;13.87;;;4.93;;
7557;SDS011;3820;51.098;13.716;2022-11-02T01:31:01;13.33;;;4.50;;
7557;SDS011;3820;51.098;13.716;2022-11-02T01:33:28;10.37;;;5.00;;
7557;SDS011;3820;51.098;13.716;2022-11-02T01:35:54;10.23;;;4.43;;
7557;SDS011;3820;51.098;13.716;2022-11-02T01:38:21;8.57;;;4.80;;
7557;SDS011;3820;51.098;13.716;2022-11-02T01:40:48;10.30;;;4.63;;
7557;SDS011;3820;51.098;13.716;2022-11-02T01:43:21;8.80;;;4.23;;
7557;SDS011;3820;51.098;13.716;2022-11-02T01:45:53;14.70;;;5.20;;
7557;SDS011;3820;51.098;13.716;2022-11-02T01:48:25;8.53;;;4.77;;
7557;SDS011;3820;51.098;13.716;2022-11-02T01:50:56;9.47;;;4.10;;
7557;SDS011;3820;51.098;13.716;2022-11-02T01:53:24;9.90;;;4.80;;
7557;SDS011;3820;51.098;13.716;2022-11-02T01:55:50;8.83;;;4.37;;
7557;SDS011;3820;51.098;13.716;2022-11-02T01:58:17;6.00;;;3.57;;
7557;SDS011;3820;51.098;13.716;2022-11-02T02:00:44;10.27;;;5.73;;
7557;SDS011;3820;51.098;13.716;2022-11-02T02:03:12;9.73;;;4.40;;
7557;SDS011;3820;51.098;13.716;2022-11-02T02:05:47;9.73;;;4.00;;
7557;SDS011;3820;51.098;13.716;2022-11-02T02:08:21;12.23;;;5.07;;
7557;SDS011;3820;51.098;13.716;2022-11-02T02:10:50;15.77;;;4.77;;
7557;SDS011;3820;51.098;13.716;2022-11-02T02:13:17;10.13;;;4.53;;
7557;SDS011;3820;51.098;13.716;2022-11-02T02:18:23;12.57;;;4.20;;
7557;SDS011;3820;51.098;13.716;2022-11-02T02:20:59;7.27;;;3.73;;
7557;SDS011;3820;51.098;13.716;2022-11-02T02:23:43;13.90;;;3.77;;
7557;SDS011;3820;51.098;13.716;2022-11-02T02:31:30;6.50;;;3.73;;
7557;SDS011;3820;51.098;13.716;2022-11-02T02:34:08;10.13;;;4.97;;
7557;SDS011;3820;51.098;13.716;2022-11-02T02:36:49;6.73;;;4.33;;
7557;SDS011;3820;51.098;13.716;2022-11-02T02:41:56;13.87;;;4.90;;
7557;SDS011;3820;51.098;13.716;2022-11-02T02:44:26;7.40;;;4.10;;
7557;SDS011;3820;51.098;13.716;2022-11-02T02:46:56;11.30;;;4.57;;
7557;SDS011;3820;51.098;13.716;2022-11-02T02:49:26;8.37;;;3.90;;
7557;SDS011;3820;51.098;13.716;2022-11-02T02:51:55;10.23;;;5.07;;
7557;SDS011;3820;51.098;13.716;2022-11-02T02:54:45;10.87;;;5.00;;
7557;SDS011;3820;51.098;13.716;2022-11-02T02:57:15;11.33;;;5.07;;
7557;SDS011;3820;51.098;13.716;2022-11-02T02:59:44;10.43;;;4.17;;
7557;SDS011;3820;51.098;13.716;2022-11-02T03:04:43;9.10;;;4.63;;
7557;SDS011;3820;51.098;13.716;2022-11-02T03:07:10;11.60;;;4.27;;
7557;SDS011;3820;51.098;13.716;2022-11-02T03:09:47;10.87;;;4.23;;
7557;SDS011;3820;51.098;13.716;2022-11-02T03:17:44;17.23;;;5.67;;
7557;SDS011;3820;51.098;13.716;2022-11-02T03:25:29;9.07;;;4.60;;
7557;SDS011;3820;51.098;13.716;2022-11-02T03:28:12;6.77;;;3.70;;
7557;SDS011;3820;51.098;13.716;2022-11-02T03:30:47;8.90;;;4.20;;
7557;SDS011;3820;51.098;13.716;2022-11-02T03:38:44;12.83;;;4.60;;
7557;SDS011;3820;51.098;13.716;2022-11-02T03:41:18;13.43;;;4.57;;
7557;SDS011;3820;51.098;13.716;2022-11-02T03:43:46;10.10;;;5.67;;
7557;SDS011;3820;51.098;13.716;2022-11-02T03:46:14;8.63;;;3.80;;
7557;SDS011;3820;51.098;13.716;2022-11-02T03:48:42;8.97;;;4.57;;
7557;SDS011;3820;51.098;13.716;2022-11-02T03:51:11;11.30;;;4.37;;
7557;SDS011;3820;51.098;13.716;2022-11-02T03:56:40;9.30;;;4.17;;
7557;SDS011;3820;51.098;13.716;2022-11-02T03:59:08;8.40;;;4.20;;
7557;SDS011;3820;51.098;13.716;2022-11-02T04:01:38;11.33;;;4.33;;
7557;SDS011;3820;51.098;13.716;2022-11-02T04:04:10;11.83;;;4.70;;
7557;SDS011;3820;51.098;13.716;2022-11-02T04:06:36;7.00;;;3.73;;
7557;SDS011;3820;51.098;13.716;2022-11-02T04:09:03;14.43;;;4.27;;
7557;SDS011;3820;51.098;13.716;2022-11-02T04:11:30;11.73;;;4.70;;
7557;SDS011;3820;51.098;13.716;2022-11-02T04:14:16;6.60;;;3.53;;
7557;SDS011;3820;51.098;13.716;2022-11-02T04:17:01;8.17;;;4.27;;
7557;SDS011;3820;51.098;13.716;2022-11-02T04:19:51;7.17;;;4.10;;
7557;SDS011;3820;51.098;13.716;2022-11-02T04:22:18;10.33;;;4.23;;
7557;SDS011;3820;51.098;13.716;2022-11-02T04:25:04;13.40;;;4.63;;
7557;SDS011;3820;51.098;13.716;2022-11-02T04:27:47;6.70;;;3.60;;
7557;SDS011;3820;51.098;13.716;2022-11-02T04:30:16;8.53;;;4.10;;
7557;SDS011;3820;51.098;13.716;2022-11-02T04:32:45;7.83;;;3.60;;
7557;SDS011;3820;51.098;13.716;2022-11-02T04:35:31;8.90;;;4.10;;
7557;SDS011;3820;51.098;13.716;2022-11-02T04:37:58;8.20;;;4.13;;
7557;SDS011;3820;51.098;13.716;2022-11-02T04:40:44;11.33;;;4.67;;
7557;SDS011;3820;51.098;13.716;2022-11-02T04:43:10;10.03;;;5.10;;
7557;SDS011;3820;51.098;13.716;2022-11-02T04:45:37;11.73;;;4.27;;
7557;SDS011;3820;51.098;13.716;2022-11-02T04:48:05;12.53;;;5.73;;
7557;SDS011;3820;51.098;13.716;2022-11-02T04:50:33;14.97;;;5.37;;
7557;SDS011;3820;51.098;13.716;2022-11-02T04:53:01;9.83;;;3.97;;
7557;SDS011;3820;51.098;13.716;2022-11-02T04:55:28;13.70;;;6.67;;
7557;SDS011;3820;51.098;13.716;2022-11-02T04:57:56;11.43;;;4.17;;
7557;SDS011;3820;51.098;13.716;2022-11-02T05:00:22;11.00;;;3.70;;
7557;SDS011;3820;51.098;13.716;2022-11-02T05:02:49;6.87;;;4.40;;
7557;SDS011;3820;51.098;13.716;2022-11-02T05:05:16;15.60;;;4.53;;
7557;SDS011;3820;51.098;13.716;2022-11-02T05:07:43;8.33;;;4.77;;
7557;SDS011;3820;51.098;13.716;2022-11-02T05:10:10;11.43;;;4.50;;
7557;SDS011;3820;51.098;13.716;2022-11-02T05:12:37;13.10;;;4.63;;
7557;SDS011;3820;51.098;13.716;2022-11-02T05:15:03;14.57;;;5.53;;
7557;SDS011;3820;51.098;13.716;2022-11-02T05:17:30;14.73;;;5.80;;
7557;SDS011;3820;51.098;13.716;2022-11-02T05:19:57;10.53;;;4.43;;
7557;SDS011;3820;51.098;13.716;2022-11-02T05:22:23;10.10;;;4.93;;
7557;SDS011;3820;51.098;13.716;2022-11-02T05:24:50;12.43;;;4.30;;
7557;SDS011;3820;51.098;13.716;2022-11-02T05:27:17;13.37;;;5.03;;
7557;SDS011;3820;51.098;13.716;2022-11-02T05:29:43;19.73;;;6.73;;
7557;SDS011;3820;51.098;13.716;2022-11-02T05:32:10;12.33;;;4.27;;
7557;SDS011;3820;51.098;13.716;2022-11-02T05:34:36;11.70;;;5.27;;
7557;SDS011;3820;51.098;13.716;2022-11-02T05:37:02;8.40;;;3.53;;
7557;SDS011;3820;51.098;13.716;2022-11-02T05:39:29;14.30;;;5.80;;
7557;SDS011;3820;51.098;13.716;2022-11-02T05:41:55;13.40;;;4.03;;
7557;SDS011;3820;51.098;13.716;2022-11-02T05:44:22;12.23;;;4.90;;
7557;SDS011;3820;51.098;13.716;2022-11-02T05:46:48;14.03;;;5.07;;
7557;SDS011;3820;51.098;13.716;2022-11-02T05:49:15;15.40;;;5.53;;
7557;SDS011;3820;51.098;13.716;2022-11-02T05:51:42;14.83;;;5.73;;
7557;SDS011;3820;51.098;13.716;2022-11-02T05:54:09;13.67;;;5.20;;
7557;SDS011;3820;51.098;13.716;2022-11-02T05:56:35;14.63;;;4.47;;
7557;SDS011;3820;51.098;13.716;2022-11-02T05:59:04;13.83;;;4.67;;
7557;SDS011;3820;51.098;13.716;2022-11-02T06:01:33;11.07;;;4.93;;
7557;SDS011;3820;51.098;13.716;2022-11-02T06:03:59;13.27;;;5.03;;
7557;SDS011;3820;51.098;13.716;2022-11-02T06:06:26;11.67;;;4.30;;
7557;SDS011;3820;51.098;13.716;2022-11-02T06:08:53;16.90;;;5.43;;
7557;SDS011;3820;51.098;13.716;2022-11-02T06:11:19;10.73;;;5.10;;
7557;SDS011;3820;51.098;13.716;2022-11-02T06:13:51;13.73;;;4.90;;
7557;SDS011;3820;51.098;13.716;2022-11-02T06:16:18;14.63;;;5.43;;
7557;SDS011;3820;51.098;13.716;2022-11-02T06:18:48;11.87;;;5.27;;
7557;SDS011;3820;51.098;13.716;2022-11-02T06:21:15;10.87;;;4.70;;
7557;SDS011;3820;51.098;13.716;2022-11-02T06:23:41;12.13;;;4.90;;
7557;SDS011;3820;51.098;13.716;2022-11-02T06:26:08;13.63;;;5.80;;
7557;SDS011;3820;51.098;13.716;2022-11-02T06:28:36;14.40;;;4.70;;
7557;SDS011;3820;51.098;13.716;2022-11-02T06:31:02;14.83;;;5.80;;
7557;SDS011;3820;51.098;13.716;2022-11-02T06:33:29;17.13;;;6.07;;
7557;SDS011;3820;51.098;13.716;2022-11-02T06:35:55;21.57;;;5.47;;
7557;SDS011;3820;51.098;13.716;2022-11-02T06:38:22;18.83;;;6.60;;
7557;SDS011;3820;51.098;13.716;2022-11-02T06:40:53;23.23;;;6.60;;
7557;SDS011;3820;51.098;13.716;2022-11-02T06:43:20;22.17;;;7.97;;
7557;SDS011;3820;51.098;13.716;2022-11-02T06:45:47;16.20;;;6.53;;
7557;SDS011;3820;51.098;13.716;2022-11-02T06:48:14;12.80;;;6.27;;
7557;SDS011;3820;51.098;13.716;2022-11-02T06:50:40;22.50;;;6.37;;
7557;SDS011;3820;51.098;13.716;2022-11-02T06:53:07;15.40;;;6.07;;
7557;SDS011;3820;51.098;13.716;2022-11-02T06:55:33;13.67;;;5.77;;
7557;SDS011;3820;51.098;13.716;2022-11-02T06:58:00;15.57;;;6.00;;
7557;SDS011;3820;51.098;13.716;2022-11-02T07:00:26;12.60;;;5.43;;
7557;SDS011;3820;51.098;13.716;2022-11-02T07:02:58;10.70;;;4.70;;
7557;SDS011;3820;51.098;13.716;2022-11-02T07:05:26;11.13;;;5.50;;
7557;SDS011;3820;51.098;13.716;2022-11-02T07:07:52;11.37;;;4.60;;
7557;SDS011;3820;51.098;13.716;2022-11-02T07:10:19;11.40;;;3.77;;
7557;SDS011;3820;51.098;13.716;2022-11-02T07:12:46;10.40;;;5.70;;
7557;SDS011;3820;51.098;13.716;2022-11-02T07:15:12;13.40;;;4.27;;
7557;SDS011;3820;51.098;13.716;2022-11-02T07:17:39;13.97;;;4.40;;
7557;SDS011;3820;51.098;13.716;2022-11-02T07:20:06;10.17;;;4.93;;
7557;SDS011;3820;51.098;13.716;2022-11-02T07:22:36;10.03;;;4.50;;
7557;SDS011;3820;51.098;13.716;2022-11-02T07:25:03;9.57;;;4.20;;
7557;SDS011;3820;51.098;13.716;2022-11-02T07:27:30;11.20;;;4.47;;
7557;SDS011;3820;51.098;13.716;2022-11-02T07:29:56;10.50;;;4.70;;
7557;SDS011;3820;51.098;13.716;2022-11-02T07:32:23;13.07;;;4.53;;
7557;SDS011;3820;51.098;13.716;2022-11-02T07:34:50;8.97;;;4.50;;
7557;SDS011;3820;51.098;13.716;2022-11-02T07:37:17;10.13;;;3.73;;
7557;SDS011;3820;51.098;13.716;2022-11-02T07:39:43;7.07;;;4.03;;
7557;SDS011;3820;51.098;13.716;2022-11-02T07:42:10;9.57;;;3.83;;
7557;SDS011;3820;51.098;13.716;2022-11-02T07:44:36;9.25;;;3.53;;
7557;SDS011;3820;51.098;13.716;2022-11-02T07:47:04;8.23;;;3.30;;
7557;SDS011;3820;51.098;13.716;2022-11-02T07:49:30;5.55;;;3.08;;
7557;SDS011;3820;51.098;13.716;2022-11-02T07:51:57;9.13;;;3.72;;
7557;SDS011;3820;51.098;13.716;2022-11-02T07:54:23;5.97;;;3.70;;
7557;SDS011;3820;51.098;13.716;2022-11-02T07:56:51;6.78;;;3.58;;
7557;SDS011;3820;51.098;13.716;2022-11-02T07:59:18;4.65;;;2.70;;
7557;SDS011;3820;51.098;13.716;2022-11-02T08:01:44;8.00;;;3.42;;
7557;SDS011;3820;51.098;13.716;2022-11-02T08:04:11;6.38;;;3.92;;
7557;SDS011;3820;51.098;13.716;2022-11-02T08:06:37;5.60;;;3.17;;
7557;SDS011;3820;51.098;13.716;2022-11-02T08:09:04;7.20;;;3.88;;
7557;SDS011;3820;51.098;13.716;2022-11-02T08:11:31;7.75;;;3.25;;
7557;SDS011;3820;51.098;13.716;2022-11-02T08:13:57;5.18;;;2.90;;
7557;SDS011;3820;51.098;13.716;2022-11-02T08:16:24;6.47;;;2.67;;
7557;SDS011;3820;51.098;13.716;2022-11-02T08:18:50;5.28;;;3.30;;
7557;SDS011;3820;51.098;13.716;2022-11-02T08:21:17;6.30;;;3.30;;
7557;SDS011;3820;51.098;13.716;2022-11-02T08:23:43;5.70;;;2.63;;
7557;SDS011;3820;51.098;13.716;2022-11-02T08:26:10;6.05;;;3.30;;
7557;SDS011;3820;51.098;13.716;2022-11-02T08:28:37;5.18;;;2.63;;
7557;SDS011;3820;51.098;13.716;2022-11-02T08:31:06;8.70;;;2.78;;
7557;SDS011;3820;51.098;13.716;2022-11-02T08:33:33;5.63;;;2.97;;
7557;SDS011;3820;51.098;13.716;2022-11-02T08:36:01;4.22;;;2.60;;
7557;SDS011;3820;51.098;13.716;2022-11-02T08:38:29;5.82;;;3.00;;
7557;SDS011;3820;51.098;13.716;2022-11-02T08:40:56;6.05;;;2.90;;
7557;SDS011;3820;51.098;13.716;2022-11-02T08:43:23;4.57;;;2.22;;
7557;SDS011;3820;51.098;13.716;2022-11-02T08:45:49;4.38;;;2.35;;
7557;SDS011;3820;51.098;13.716;2022-11-02T08:48:36;3.05;;;1.92;;
7557;SDS011;3820;51.098;13.716;2022-11-02T08:51:02;11.35;;;2.65;;
7557;SDS011;3820;51.098;13.716;2022-11-02T08:53:30;4.10;;;2.10;;
7557;SDS011;3820;51.098;13.716;2022-11-02T08:55:57;4.18;;;1.48;;
7557;SDS011;3820;51.098;13.716;2022-11-02T08:58:24;4.03;;;1.55;;
7557;SDS011;3820;51.098;13.716;2022-11-02T09:15:55;1.70;;;0.52;;
7557;SDS011;3820;51.098;13.716;2022-11-02T09:18:23;3.58;;;0.75;;
7557;SDS011;3820;51.098;13.716;2022-11-02T09:20:50;1.20;;;0.77;;
7557;SDS011;3820;51.098;13.716;2022-11-02T09:23:17;3.28;;;0.73;;
7557;SDS011;3820;51.098;13.716;2022-11-02T09:25:45;4.13;;;1.70;;
7557;SDS011;3820;51.098;13.716;2022-11-02T09:28:12;1.17;;;0.90;;
7557;SDS011;3820;51.098;13.716;2022-11-02T09:30:41;2.47;;;0.70;;
7557;SDS011;3820;51.098;13.716;2022-11-02T09:33:08;1.42;;;0.68;;
7557;SDS011;3820;51.098;13.716;2022-11-02T09:35:36;3.30;;;1.00;;
7557;SDS011;3820;51.098;13.716;2022-11-02T09:38:05;3.75;;;1.45;;
7557;SDS011;3820;51.098;13.716;2022-11-02T09:40:38;3.65;;;0.98;;
7557;SDS011;3820;51.098;13.716;2022-11-02T09:46:07;1.45;;;0.75;;
7557;SDS011;3820;51.098;13.716;2022-11-02T09:48:41;3.03;;;0.80;;
7557;SDS011;3820;51.098;13.716;2022-11-02T09:54:10;1.08;;;0.52;;
7557;SDS011;3820;51.098;13.716;2022-11-02T09:56:43;0.40;;;0.40;;
7557;SDS011;3820;51.098;13.716;2022-11-02T09:59:12;1.38;;;0.50;;
7557;SDS011;3820;51.098;13.716;2022-11-02T10:07:38;0.77;;;0.75;;
7557;SDS011;3820;51.098;13.716;2022-11-02T10:16:51;1.25;;;0.60;;
7557;SDS011;3820;51.098;13.716;2022-11-02T10:18:49;3.08;;;0.90;;
7557;SDS011;3820;51.098;13.716;2022-11-02T10:21:25;2.10;;;0.77;;
7557;SDS011;3820;51.098;13.716;2022-11-02T10:23:57;3.53;;;0.73;;
7557;SDS011;3820;51.098;13.716;2022-11-02T10:26:31;3.70;;;0.90;;
7557;SDS011;3820;51.098;13.716;2022-11-02T10:29:05;1.60;;;0.88;;
7557;SDS011;3820;51.098;13.716;2022-11-02T10:31:44;1.35;;;0.85;;
7557;SDS011;3820;51.098;13.716;2022-11-02T10:37:16;0.82;;;0.68;;
7557;SDS011;3820;51.098;13.716;2022-11-02T10:50:45;3.38;;;1.10;;
7557;SDS011;3820;51.098;13.716;2022-11-02T10:53:14;0.80;;;0.80;;
7557;SDS011;3820;51.098;13.716;2022-11-02T10:56:06;2.63;;;0.77;;
7557;SDS011;3820;51.098;13.716;2022-11-02T10:58:39;3.08;;;1.23;;
7557;SDS011;3820;51.098;13.716;2022-11-02T11:01:10;1.92;;;0.80;;
7557;SDS011;3820;51.098;13.716;2022-11-02T11:06:18;0.63;;;0.63;;
7557;SDS011;3820;51.098;13.716;2022-11-02T11:08:45;2.20;;;0.63;;
7557;SDS011;3820;51.098;13.716;2022-11-02T11:11:24;0.70;;;0.70;;
7557;SDS011;3820;51.098;13.716;2022-11-02T11:13:57;1.75;;;0.98;;
7557;SDS011;3820;51.098;13.716;2022-11-02T11:16:50;1.85;;;0.63;;
7557;SDS011;3820;51.098;13.716;2022-11-02T11:19:30;1.65;;;0.75;;
7557;SDS011;3820;51.098;13.716;2022-11-02T11:22:00;3.42;;;0.63;;
7557;SDS011;3820;51.098;13.716;2022-11-02T11:24:29;1.40;;;1.13;;
7557;SDS011;3820;51.098;13.716;2022-11-02T11:32:18;3.45;;;0.70;;
7557;SDS011;3820;51.098;13.716;2022-11-02T11:35:00;3.38;;;1.67;;
7557;SDS011;3820;51.098;13.716;2022-11-02T11:37:28;1.80;;;0.90;;
7557;SDS011;3820;51.098;13.716;2022-11-02T11:39:59;0.70;;;0.55;;
7557;SDS011;3820;51.098;13.716;2022-11-02T11:42:33;1.63;;;0.55;;
7557;SDS011;3820;51.098;13.716;2022-11-02T11:45:05;3.83;;;0.80;;
7557;SDS011;3820;51.098;13.716;2022-11-02T11:47:34;0.68;;;0.68;;
7557;SDS011;3820;51.098;13.716;2022-11-02T11:50:04;1.10;;;0.60;;
7557;SDS011;3820;51.098;13.716;2022-11-02T11:52:43;1.30;;;0.63;;
7557;SDS011;3820;51.098;13.716;2022-11-02T11:55:21;0.98;;;0.60;;
7557;SDS011;3820;51.098;13.716;2022-11-02T12:00:39;2.85;;;0.85;;
7557;SDS011;3820;51.098;13.716;2022-11-02T12:03:10;1.67;;;0.90;;
7557;SDS011;3820;51.098;13.716;2022-11-02T12:08:34;3.58;;;0.75;;
7557;SDS011;3820;51.098;13.716;2022-11-02T12:22:15;3.13;;;1.00;;
7557;SDS011;3820;51.098;13.716;2022-11-02T12:33:12;1.42;;;0.70;;
7557;SDS011;3820;51.098;13.716;2022-11-02T12:35:56;1.05;;;0.70;;
7557;SDS011;3820;51.098;13.716;2022-11-02T12:46:30;1.77;;;0.73;;
7557;SDS011;3820;51.098;13.716;2022-11-02T12:51:33;0.90;;;0.70;;
7557;SDS011;3820;51.098;13.716;2022-11-02T12:54:10;0.77;;;0.63;;
7557;SDS011;3820;51.098;13.716;2022-11-02T12:56:44;2.10;;;0.93;;
7557;SDS011;3820;51.098;13.716;2022-11-02T12:59:25;1.23;;;0.50;;
7557;SDS011;3820;51.098;13.716;2022-11-02T13:01:53;3.50;;;1.13;;
7557;SDS011;3820;51.098;13.716;2022-11-02T13:04:34;1.85;;;1.15;;
7557;SDS011;3820;51.098;13.716;2022-11-02T13:07:16;2.83;;;1.17;;
7557;SDS011;3820;51.098;13.716;2022-11-02T13:09:53;3.53;;;0.90;;
7557;SDS011;3820;51.098;13.716;2022-11-02T13:12:24;2.20;;;0.90;;
7557;SDS011;3820;51.098;13.716;2022-11-02T13:14:52;1.50;;;0.70;;
7557;SDS011;3820;51.098;13.716;2022-11-02T13:20:01;0.60;;;0.60;;
7557;SDS011;3820;51.098;13.716;2022-11-02T13:22:34;3.67;;;0.63;;
7557;SDS011;3820;51.098;13.716;2022-11-02T13:25:15;4.35;;;1.10;;
7557;SDS011;3820;51.098;13.716;2022-11-02T13:27:47;2.47;;;1.17;;
7557;SDS011;3820;51.098;13.716;2022-11-02T13:30:17;3.53;;;0.82;;
7557;SDS011;3820;51.098;13.716;2022-11-02T13:33:03;2.28;;;0.60;;
7557;SDS011;3820;51.098;13.716;2022-11-02T13:35:37;1.88;;;0.60;;
7557;SDS011;3820;51.098;13.716;2022-11-02T13:41:04;0.65;;;0.52;;
7557;SDS011;3820;51.098;13.716;2022-11-02T13:49:28;1.38;;;0.88;;
7557;SDS011;3820;51.098;13.716;2022-11-02T13:52:04;0.88;;;0.60;;
7557;SDS011;3820;51.098;13.716;2022-11-02T13:54:44;2.28;;;0.63;;
7557;SDS011;3820;51.098;13.716;2022-11-02T14:00:02;0.73;;;0.50;;
7557;SDS011;3820;51.098;13.716;2022-11-02T14:02:32;0.80;;;0.57;;
7557;SDS011;3820;51.098;13.716;2022-11-02T14:05:01;1.15;;;0.70;;
7557;SDS011;3820;51.098;13.716;2022-11-02T14:07:34;1.33;;;0.60;;
7557;SDS011;3820;51.098;13.716;2022-11-02T14:10:12;0.57;;;0.57;;
7557;SDS011;3820;51.098;13.716;2022-11-02T14:12:42;0.93;;;0.80;;
7557;SDS011;3820;51.098;13.716;2022-11-02T14:25:53;5.85;;;0.77;;
7557;SDS011;3820;51.098;13.716;2022-11-02T14:30:55;2.22;;;0.80;;
7557;SDS011;3820;51.098;13.716;2022-11-02T14:39:05;2.22;;;0.90;;
7557;SDS011;3820;51.098;13.716;2022-11-02T14:47:05;2.17;;;0.50;;
7557;SDS011;3820;51.098;13.716;2022-11-02T14:49:37;0.80;;;0.50;;
7557;SDS011;3820;51.098;13.716;2022-11-02T14:52:07;0.57;;;0.55;;
7557;SDS011;3820;51.098;13.716;2022-11-02T14:54:45;1.95;;;0.57;;
7557;SDS011;3820;51.098;13.716;2022-11-02T14:57:19;0.52;;;0.52;;
7557;SDS011;3820;51.098;13.716;2022-11-02T14:59:48;0.73;;;0.73;;
7557;SDS011;3820;51.098;13.716;2022-11-02T15:02:23;1.63;;;0.70;;
7557;SDS011;3820;51.098;13.716;2022-11-02T15:05:18;4.28;;;0.93;;
7557;SDS011;3820;51.098;13.716;2022-11-02T15:07:51;1.63;;;0.70;;
7557;SDS011;3820;51.098;13.716;2022-11-02T15:13:21;3.10;;;1.08;;
7557;SDS011;3820;51.098;13.716;2022-11-02T15:23:46;0.80;;;0.80;;
7557;SDS011;3820;51.098;13.716;2022-11-02T15:26:17;7.30;;;1.05;;
7557;SDS011;3820;51.098;13.716;2022-11-02T15:28:48;1.25;;;0.77;;
7557;SDS011;3820;51.098;13.716;2022-11-02T15:31:19;1.60;;;0.90;;
7557;SDS011;3820;51.098;13.716;2022-11-02T15:33:54;1.17;;;0.68;;
7557;SDS011;3820;51.098;13.716;2022-11-02T15:36:35;3.55;;;1.08;;
7557;SDS011;3820;51.098;13.716;2022-11-02T15:39:03;1.77;;;0.90;;
7557;SDS011;3820;51.098;13.716;2022-11-02T15:52:54;2.95;;;1.15;;
7557;SDS011;3820;51.098;13.716;2022-11-02T15:56:05;1.85;;;1.10;;
7557;SDS011;3820;51.098;13.716;2022-11-02T15:58:58;1.92;;;0.90;;
7557;SDS011;3820;51.098;13.716;2022-11-02T16:01:35;5.32;;;1.20;;
7557;SDS011;3820;51.098;13.716;2022-11-02T16:04:04;1.25;;;0.80;;
7557;SDS011;3820;51.098;13.716;2022-11-02T16:06:39;1.30;;;0.90;;
7557;SDS011;3820;51.098;13.716;2022-11-02T16:12:02;4.78;;;1.27;;
7557;SDS011;3820;51.098;13.716;2022-11-02T16:14:29;2.45;;;1.20;;
7557;SDS011;3820;51.098;13.716;2022-11-02T16:16:57;7.47;;;1.50;;
7557;SDS011;3820;51.098;13.716;2022-11-02T16:19:23;5.00;;;1.30;;
7557;SDS011;3820;51.098;13.716;2022-11-02T16:21:50;2.67;;;1.17;;
7557;SDS011;3820;51.098;13.716;2022-11-02T16:24:17;1.90;;;1.00;;
7557;SDS011;3820;51.098;13.716;2022-11-02T16:26:43;2.00;;;1.27;;
7557;SDS011;3820;51.098;13.716;2022-11-02T16:29:14;3.63;;;1.30;;
7557;SDS011;3820;51.098;13.716;2022-11-02T16:31:52;2.50;;;1.20;;
7557;SDS011;3820;51.098;13.716;2022-11-02T16:34:20;1.90;;;1.00;;
7557;SDS011;3820;51.098;13.716;2022-11-02T16:36:47;4.80;;;1.97;;
7557;SDS011;3820;51.098;13.716;2022-11-02T16:39:19;4.37;;;1.67;;
7557;SDS011;3820;51.098;13.716;2022-11-02T16:41:48;3.80;;;1.33;;
7557;SDS011;3820;51.098;13.716;2022-11-02T16:44:23;2.60;;;1.07;;
7557;SDS011;3820;51.098;13.716;2022-11-02T16:46:53;1.97;;;1.43;;
7557;SDS011;3820;51.098;13.716;2022-11-02T16:49:25;3.43;;;1.63;;
7557;SDS011;3820;51.098;13.716;2022-11-02T16:51:53;3.87;;;1.30;;
7557;SDS011;3820;51.098;13.716;2022-11-02T16:57:05;5.70;;;1.53;;
7557;SDS011;3820;51.098;13.716;2022-11-02T16:59:56;3.37;;;2.17;;
7557;SDS011;3820;51.098;13.716;2022-11-02T17:02:37;4.40;;;1.70;;
7557;SDS011;3820;51.098;13.716;2022-11-02T17:05:06;2.47;;;1.47;;
7557;SDS011;3820;51.098;13.716;2022-11-02T17:07:41;2.50;;;1.37;;
7557;SDS011;3820;51.098;13.716;2022-11-02T17:10:17;4.27;;;2.00;;
7557;SDS011;3820;51.098;13.716;2022-11-02T17:12:45;3.53;;;1.77;;
7557;SDS011;3820;51.098;13.716;2022-11-02T17:15:14;3.60;;;1.67;;
7557;SDS011;3820;51.098;13.716;2022-11-02T17:17:43;2.83;;;2.07;;
7557;SDS011;3820;51.098;13.716;2022-11-02T17:22:37;6.30;;;1.50;;
7557;SDS011;3820;51.098;13.716;2022-11-02T17:25:12;2.27;;;1.27;;
7557;SDS011;3820;51.098;13.716;2022-11-02T17:27:45;2.80;;;1.63;;
7557;SDS011;3820;51.098;13.716;2022-11-02T17:30:45;4.17;;;1.60;;
7557;SDS011;3820;51.098;13.716;2022-11-02T17:33:47;6.70;;;1.93;;
7557;SDS011;3820;51.098;13.716;2022-11-02T17:36:05;3.40;;;1.63;;
7557;SDS011;3820;51.098;13.716;2022-11-02T17:38:32;4.47;;;1.87;;
7557;SDS011;3820;51.098;13.716;2022-11-02T17:40:59;6.30;;;2.23;;
7557;SDS011;3820;51.098;13.716;2022-11-02T17:43:26;4.00;;;2.33;;
7557;SDS011;3820;51.098;13.716;2022-11-02T17:45:56;5.90;;;2.10;;
7557;SDS011;3820;51.098;13.716;2022-11-02T17:48:24;2.63;;;1.60;;
7557;SDS011;3820;51.098;13.716;2022-11-02T17:50:54;5.83;;;1.83;;
7557;SDS011;3820;51.098;13.716;2022-11-02T17:53:22;2.37;;;1.40;;
7557;SDS011;3820;51.098;13.716;2022-11-02T17:55:49;2.77;;;1.90;;
7557;SDS011;3820;51.098;13.716;2022-11-02T17:58:16;3.27;;;1.87;;
7557;SDS011;3820;51.098;13.716;2022-11-02T18:00:43;3.53;;;1.50;;
7557;SDS011;3820;51.098;13.716;2022-11-02T18:03:12;4.53;;;2.03;;
7557;SDS011;3820;51.098;13.716;2022-11-02T18:05:42;1.97;;;1.63;;
7557;SDS011;3820;51.098;13.716;2022-11-02T18:08:15;5.10;;;1.90;;
7557;SDS011;3820;51.098;13.716;2022-11-02T18:10:42;1.77;;;1.37;;
7557;SDS011;3820;51.098;13.716;2022-11-02T18:13:11;4.13;;;1.93;;
7557;SDS011;3820;51.098;13.716;2022-11-02T18:15:38;3.10;;;1.83;;
7557;SDS011;3820;51.098;13.716;2022-11-02T18:18:05;4.23;;;1.83;;
7557;SDS011;3820;51.098;13.716;2022-11-02T18:20:32;7.90;;;2.37;;
7557;SDS011;3820;51.098;13.716;2022-11-02T18:23:06;4.93;;;2.20;;
7557;SDS011;3820;51.098;13.716;2022-11-02T18:25:33;7.50;;;2.27;;
7557;SDS011;3820;51.098;13.716;2022-11-02T18:28:00;4.47;;;1.67;;
7557;SDS011;3820;51.098;13.716;2022-11-02T18:30:28;3.20;;;1.90;;
7557;SDS011;3820;51.098;13.716;2022-11-02T18:32:55;3.60;;;2.00;;